Time;durP1;ratioP1;P1;durP2;ratioP2;P2;SDS_P1;SDS_P2;PMS_P1;PMS_P2;Temp;Humidity;BMP_temperature;BMP_pressure;BME280_temperature;BME280_humidity;BME280_pressure;Samples;Min_cycle;Max_cycle;Signal;HPM_P1;HPM_P2
2023/06/13 00:00:44;;;;;;;6.10;4.35;;;19.80;35.70;;;21.71;29.91;97264.09;5053754;28;20052;-46
2023/06/13 00:03:13;;;;;;;5.70;3.58;;;19.80;35.90;;;21.66;30.00;97272.16;5081575;28;20388;-44
2023/06/13 00:05:46;;;;;;;5.35;4.03;;;19.70;36.00;;;21.63;30.50;97268.00;5080830;28;20044;-45
2023/06/13 00:08:17;;;;;;;4.85;3.75;;;19.60;35.90;;;21.60;30.37;97263.09;5081607;28;20063;-44
2023/06/13 00:10:46;;;;;;;5.60;4.53;;;19.70;36.00;;;21.55;30.40;97261.09;5084332;28;20495;-43
2023/06/13 00:13:15;;;;;;;4.78;4.05;;;19.60;36.10;;;21.53;30.51;97257.00;5086001;28;20055;-45
2023/06/13 00:15:56;;;;;;;6.32;3.90;;;19.60;36.30;;;21.47;30.71;97258.78;5084324;28;20503;-44
2023/06/13 00:18:25;;;;;;;4.57;3.83;;;19.60;36.80;;;21.46;30.43;97254.44;5055597;28;20048;-43
2023/06/13 00:20:54;;;;;;;4.78;4.20;;;19.60;36.30;;;21.42;30.69;97256.78;5057866;28;20052;-43
2023/06/13 00:23:22;;;;;;;5.68;3.65;;;19.60;36.60;;;21.36;30.73;97259.59;5061170;28;20408;-43
2023/06/13 00:25:50;;;;;;;6.72;4.30;;;19.50;36.80;;;21.34;31.06;97256.31;5084313;28;20063;-44
2023/06/13 00:28:19;;;;;;;5.32;4.10;;;19.40;36.80;;;21.30;30.86;97253.25;5084880;28;20047;-42
2023/06/13 00:30:46;;;;;;;6.10;4.30;;;19.40;36.90;;;21.28;31.25;97266.22;5065463;28;20044;-44
2023/06/13 00:33:17;;;;;;;6.05;3.97;;;19.40;36.80;;;21.23;31.34;97256.09;5054912;28;20052;-45
2023/06/13 00:35:46;;;;;;;5.25;4.03;;;19.40;37.20;;;21.21;31.34;97260.13;5057763;28;20047;-44
2023/06/13 00:38:17;;;;;;;5.10;3.80;;;19.30;37.20;;;21.19;31.60;97259.50;5084676;28;20539;-44
2023/06/13 00:40:45;;;;;;;6.28;3.42;;;19.30;37.40;;;21.16;31.41;97258.13;5066249;28;20048;-44
2023/06/13 00:43:12;;;;;;;6.95;4.15;;;19.30;37.50;;;21.13;31.75;97255.06;5055249;28;20412;-43
2023/06/13 00:45:40;;;;;;;5.43;3.58;;;19.20;37.80;;;21.04;31.61;97252.72;5081985;28;20048;-43
2023/06/13 00:48:09;;;;;;;5.15;4.18;;;19.10;38.00;;;21.01;31.69;97250.50;5085083;28;20036;-44
2023/06/13 00:50:40;;;;;;;6.32;3.78;;;19.00;38.00;;;20.95;31.69;97243.31;5055628;28;20041;-42
2023/06/13 00:53:16;;;;;;;4.90;4.30;;;18.90;38.70;;;20.90;31.68;97251.34;5070359;28;20036;-44
2023/06/13 00:55:47;;;;;;;5.32;4.40;;;18.90;38.60;;;20.87;31.87;97251.81;5083716;28;20048;-43
2023/06/13 00:58:16;;;;;;;5.25;4.20;;;18.80;38.70;;;20.81;32.20;97250.06;5054749;28;20048;-42
2023/06/13 01:00:45;;;;;;;5.07;3.97;;;18.80;38.80;;;20.76;32.14;97248.06;5049929;28;20052;-44
2023/06/13 01:03:15;;;;;;;6.82;3.95;;;18.70;39.10;;;20.72;32.49;97251.47;5054875;28;20037;-44
2023/06/13 01:05:46;;;;;;;5.65;3.67;;;18.70;39.10;;;20.68;32.33;97243.00;5072812;28;20052;-44
2023/06/13 01:08:21;;;;;;;7.10;4.05;;;18.70;39.40;;;20.62;32.38;97242.03;5073023;28;20048;-42
2023/06/13 01:11:04;;;;;;;6.47;3.92;;;18.60;39.60;;;20.59;32.81;97234.41;5038994;28;20048;-43
2023/06/13 01:13:47;;;;;;;5.70;3.90;;;18.50;40.20;;;20.54;32.75;97233.44;5055600;28;20400;-44
2023/06/13 01:16:38;;;;;;;9.52;4.80;;;18.50;40.00;;;20.50;32.64;97240.38;5047731;28;20063;-43
2023/06/13 01:19:18;;;;;;;6.53;3.42;;;18.50;40.40;;;20.44;32.70;97239.44;5046199;28;20055;-42
2023/06/13 01:21:48;;;;;;;8.68;4.03;;;18.40;40.20;;;20.39;33.22;97239.31;5057361;28;20051;-42
2023/06/13 01:24:38;;;;;;;5.85;4.07;;;18.40;39.90;;;20.32;33.06;97230.50;5062097;28;20032;-44
2023/06/13 01:27:08;;;;;;;4.40;3.75;;;18.30;40.90;;;20.26;33.36;97230.38;5035774;28;20048;-42
2023/06/13 01:29:37;;;;;;;6.55;4.68;;;18.30;40.30;;;20.22;33.37;97228.34;5039050;28;20045;-42
2023/06/13 01:32:06;;;;;;;5.88;4.05;;;18.20;41.30;;;20.20;33.26;97228.59;5080719;28;20025;-42
2023/06/13 01:34:35;;;;;;;5.93;3.83;;;18.20;40.60;;;20.16;33.61;97223.88;5079640;28;20044;-44
2023/06/13 01:37:03;;;;;;;4.70;3.88;;;18.10;40.90;;;20.14;33.40;97232.25;5056978;28;20245;-45
2023/06/13 01:39:35;;;;;;;4.60;4.13;;;18.10;40.80;;;20.12;33.47;97230.81;5084267;28;20126;-43
2023/06/13 01:42:03;;;;;;;4.85;3.85;;;18.10;41.30;;;20.06;33.65;97225.31;5081263;28;20169;-43
2023/06/13 01:44:33;;;;;;;6.68;3.92;;;18.10;41.00;;;20.04;33.54;97218.47;5080998;28;20040;-43
2023/06/13 01:47:26;;;;;;;6.68;4.25;;;18.00;41.00;;;19.99;33.61;97216.47;5083067;28;20040;-43
2023/06/13 01:50:24;;;;;;;5.15;4.32;;;18.00;41.90;;;19.96;33.84;97216.09;5057371;28;20056;-42
2023/06/13 01:53:07;;;;;;;5.30;4.22;;;18.00;42.10;;;19.94;33.91;97213.63;5058686;28;20044;-43
2023/06/13 01:55:45;;;;;;;5.30;4.03;;;18.00;41.20;;;19.90;33.66;97220.56;5042647;28;20052;-45
2023/06/13 01:58:35;;;;;;;4.55;3.92;;;17.90;41.60;;;19.87;34.08;97212.91;5030107;28;20036;-43
2023/06/13 02:01:06;;;;;;;5.30;4.35;;;17.90;42.30;;;19.87;33.92;97221.00;5045816;28;20048;-44
2023/06/13 02:03:34;;;;;;;8.38;3.97;;;17.90;41.50;;;19.83;33.86;97217.97;5072116;28;20040;-50
2023/06/13 02:06:02;;;;;;;5.88;3.92;;;17.80;41.30;;;19.81;34.23;97211.13;5053387;28;20518;-42
2023/06/13 02:08:31;;;;;;;6.55;4.03;;;17.80;41.60;;;19.77;34.17;97208.06;5071643;28;20039;-43
2023/06/13 02:10:59;;;;;;;5.47;3.92;;;17.80;41.60;;;19.73;34.27;97216.84;5080217;28;20080;-42
2023/06/13 02:13:31;;;;;;;5.45;4.03;;;17.70;41.60;;;19.68;34.24;97210.25;5037001;28;20044;-42
2023/06/13 02:15:59;;;;;;;5.82;3.67;;;17.70;41.70;;;19.67;34.41;97213.97;5054545;28;20057;-43
2023/06/13 02:18:27;;;;;;;5.40;3.60;;;17.80;41.70;;;19.67;34.52;97211.28;5065943;28;20047;-43
2023/06/13 02:20:55;;;;;;;4.88;4.03;;;17.80;41.70;;;19.68;34.31;97212.13;5048214;28;20053;-42
2023/06/13 02:23:26;;;;;;;4.43;3.80;;;17.80;41.70;;;19.68;34.66;97209.44;5060057;28;20053;-43
2023/06/13 02:25:55;;;;;;;5.85;4.30;;;17.80;41.70;;;19.68;34.48;97214.84;5080138;28;20056;-43
2023/06/13 02:28:24;;;;;;;5.80;4.15;;;17.80;41.80;;;19.64;34.74;97213.66;5082762;28;20055;-45
2023/06/13 02:30:52;;;;;;;5.28;3.80;;;17.70;42.10;;;19.60;34.62;97221.38;5056508;28;20045;-42
2023/06/13 02:33:19;;;;;;;5.53;4.57;;;17.60;42.30;;;19.56;34.97;97217.50;5060170;28;20044;-42
2023/06/13 02:35:47;;;;;;;5.75;4.38;;;17.60;42.40;;;19.51;34.93;97214.66;5079571;28;20041;-42
2023/06/13 02:38:15;;;;;;;6.47;4.68;;;17.50;42.70;;;19.46;34.94;97211.78;5053616;28;20049;-44
2023/06/13 02:40:42;;;;;;;6.13;4.28;;;17.50;42.60;;;19.40;35.19;97212.72;5052795;28;20048;-43
2023/06/13 02:43:11;;;;;;;7.82;4.57;;;17.50;43.00;;;19.36;35.21;97215.03;5056043;28;20044;-43
2023/06/13 02:45:38;;;;;;;5.05;3.80;;;17.40;43.10;;;19.33;35.18;97218.22;5082695;28;20051;-43
2023/06/13 02:48:06;;;;;;;4.90;3.58;;;17.30;43.00;;;19.28;35.29;97216.19;5055609;28;20044;-42
2023/06/13 02:50:34;;;;;;;5.18;4.15;;;17.40;43.00;;;19.26;35.26;97229.06;5064977;28;20036;-44
2023/06/13 02:53:01;;;;;;;5.13;4.18;;;17.30;43.30;;;19.25;35.34;97218.50;5056111;28;20052;-44
2023/06/13 02:55:30;;;;;;;5.15;4.00;;;17.30;43.10;;;19.20;35.50;97213.78;5057830;28;20052;-42
2023/06/13 02:57:58;;;;;;;5.72;3.90;;;17.30;43.30;;;19.14;35.47;97214.72;5080509;28;20048;-42
2023/06/13 03:00:25;;;;;;;6.63;4.05;;;17.40;43.10;;;19.13;35.63;97210.34;5059406;28;20450;-42
2023/06/13 03:03:04;;;;;;;5.10;4.00;;;17.30;43.50;;;19.12;35.64;97219.50;5054728;28;20059;-43
2023/06/13 03:05:32;;;;;;;5.03;3.92;;;17.20;43.50;;;19.08;35.73;97213.72;5063805;28;20040;-42
2023/06/13 03:08:01;;;;;;;5.18;3.65;;;17.30;43.50;;;19.07;35.74;97212.06;5055670;28;20071;-42
2023/06/13 03:10:29;;;;;;;6.20;3.90;;;17.20;43.50;;;19.08;35.82;97218.31;5048183;28;20047;-42
2023/06/13 03:12:57;;;;;;;4.68;3.70;;;17.20;43.50;;;19.07;35.84;97213.97;5055457;28;20044;-42
2023/06/13 03:15:27;;;;;;;4.72;3.90;;;17.30;43.40;;;19.05;35.98;97218.75;5059503;28;20053;-42
2023/06/13 03:17:56;;;;;;;5.68;3.63;;;17.30;43.40;;;19.00;36.08;97224.00;5052782;28;20059;-42
2023/06/13 03:20:24;;;;;;;5.55;3.88;;;17.30;43.20;;;18.99;36.03;97215.09;5059245;28;20048;-42
2023/06/13 03:23:00;;;;;;;7.85;3.88;;;17.30;43.40;;;19.02;36.02;97221.91;5053565;28;20053;-42
2023/06/13 03:25:29;;;;;;;4.80;3.90;;;17.30;43.50;;;19.00;36.19;97221.28;5037690;28;20045;-44
2023/06/13 03:27:57;;;;;;;5.65;3.67;;;17.30;43.70;;;18.96;36.23;97223.63;5057855;28;20045;-43
2023/06/13 03:30:25;;;;;;;6.13;4.13;;;17.20;43.50;;;18.96;36.15;97223.63;5030949;28;20538;-43
2023/06/13 03:32:54;;;;;;;4.47;3.85;;;17.20;43.50;;;18.93;36.32;97231.34;5048952;28;20051;-44
2023/06/13 03:35:24;;;;;;;8.30;4.68;;;17.20;43.70;;;18.94;36.24;97235.69;5055241;28;20053;-43
2023/06/13 03:37:52;;;;;;;5.05;3.67;;;17.20;44.00;;;18.94;36.38;97235.69;5066922;28;20500;-42
2023/06/13 03:40:20;;;;;;;5.40;4.07;;;17.20;43.90;;;18.95;36.25;97240.84;5052508;28;20049;-49
2023/06/13 03:42:50;;;;;;;4.78;3.83;;;17.20;43.70;;;18.99;36.30;97246.63;5055675;28;20412;-44
2023/06/13 03:45:19;;;;;;;4.25;3.53;;;17.30;43.70;;;18.99;36.24;97247.44;5055948;28;20044;-44
2023/06/13 03:47:47;;;;;;;5.15;4.25;;;17.20;43.60;;;18.99;36.30;97247.44;5056765;28;20518;-43
2023/06/13 03:50:15;;;;;;;5.75;4.68;;;17.30;43.70;;;18.97;36.21;97252.25;5054593;28;20048;-42
2023/06/13 03:52:45;;;;;;;6.22;3.80;;;17.30;43.90;;;18.97;36.42;97260.34;5055834;28;20044;-44
2023/06/13 03:55:13;;;;;;;6.15;4.43;;;17.30;43.70;;;18.94;36.46;97255.41;5038691;28;20064;-42
2023/06/13 03:57:41;;;;;;;6.55;3.88;;;17.30;43.70;;;18.95;36.43;97251.66;5055757;28;20503;-42
2023/06/13 04:00:10;;;;;;;5.45;3.53;;;17.30;43.80;;;18.98;36.59;97263.84;5049760;28;20534;-42
2023/06/13 04:02:39;;;;;;;5.78;4.10;;;17.20;44.20;;;18.97;36.53;97259.53;5086326;28;20055;-42
2023/06/13 04:05:08;;;;;;;5.57;3.97;;;17.20;44.20;;;18.97;36.60;97264.91;5059826;28;20085;-50
2023/06/13 04:07:36;;;;;;;6.30;4.18;;;17.20;44.20;;;18.92;36.93;97259.34;5086029;28;20522;-42
2023/06/13 04:10:05;;;;;;;7.32;3.40;;;17.20;44.50;;;18.92;36.80;97270.16;5060374;28;20036;-42
2023/06/13 04:12:35;;;;;;;5.35;3.53;;;17.20;44.80;;;18.91;36.83;97269.34;5067203;28;20055;-42
2023/06/13 04:15:05;;;;;;;8.18;4.13;;;17.10;45.00;;;18.86;36.99;97270.00;5058863;28;20419;-42
2023/06/13 04:17:33;;;;;;;4.97;3.60;;;17.10;44.80;;;18.84;37.01;97274.81;5058306;28;20056;-42
2023/06/13 04:20:03;;;;;;;5.65;3.90;;;17.10;44.90;;;18.81;36.93;97275.25;5058560;28;20053;-42
2023/06/13 04:22:31;;;;;;;11.60;5.07;;;17.10;45.00;;;18.80;36.96;97272.75;5055392;28;20053;-41
2023/06/13 04:24:59;;;;;;;5.55;3.65;;;17.10;44.90;;;18.81;36.96;97272.53;5073734;28;20040;-41
2023/06/13 04:27:31;;;;;;;5.07;3.33;;;17.10;44.80;;;18.83;36.97;97272.31;5054965;28;20048;-42
2023/06/13 04:29:59;;;;;;;6.35;4.00;;;17.10;44.80;;;18.86;36.99;97263.78;5055868;28;20055;-44
2023/06/13 04:32:28;;;;;;;4.65;4.00;;;17.10;44.80;;;18.84;36.94;97269.41;5039437;28;20058;-42
2023/06/13 04:34:58;;;;;;;5.63;3.25;;;17.10;44.80;;;18.85;37.03;97268.34;5046911;28;20059;-42
2023/06/13 04:37:26;;;;;;;7.47;4.57;;;17.10;44.90;;;18.84;36.98;97266.72;5065264;28;20419;-42
2023/06/13 04:39:55;;;;;;;4.22;3.25;;;17.20;44.60;;;18.81;37.12;97269.84;5081372;28;20074;-43
2023/06/13 04:42:27;;;;;;;6.00;3.80;;;17.20;44.80;;;18.85;37.12;97281.03;5059007;28;20047;-41
2023/06/13 04:44:58;;;;;;;6.68;3.63;;;17.20;45.00;;;18.84;37.05;97272.09;5060268;28;20047;-43
2023/06/13 04:47:29;;;;;;;5.50;3.50;;;17.20;44.80;;;18.80;37.24;97272.75;5068551;28;20491;-44
2023/06/13 04:50:21;;;;;;;4.45;3.38;;;17.20;44.80;;;18.80;37.22;97278.97;5082461;28;20415;-42
2023/06/13 04:52:53;;;;;;;5.60;3.55;;;17.10;44.80;;;18.80;37.41;97278.97;5055400;28;20044;-42
2023/06/13 04:55:22;;;;;;;6.70;3.83;;;17.20;44.90;;;18.77;37.36;97287.50;5083873;28;20040;-43
2023/06/13 04:57:50;;;;;;;4.30;3.42;;;17.20;44.80;;;18.75;37.58;97283.38;5084589;28;20044;-41
2023/06/13 05:00:19;;;;;;;5.57;4.10;;;17.20;44.90;;;18.75;37.67;97291.47;5082392;28;20389;-43
2023/06/13 05:02:48;;;;;;;4.07;3.55;;;17.30;45.30;;;18.77;37.91;97290.19;5054452;28;20056;-43
2023/06/13 05:05:18;;;;;;;9.45;3.58;;;17.20;45.70;;;18.73;37.97;97282.75;5083133;28;20051;-42
2023/06/13 05:07:47;;;;;;;4.80;3.50;;;17.20;45.50;;;18.76;38.17;97293.91;5084562;28;20043;-41
2023/06/13 05:10:16;;;;;;;7.03;3.67;;;17.30;45.70;;;18.75;38.13;97284.19;5082870;28;20040;-42
2023/06/13 05:12:46;;;;;;;5.10;3.70;;;17.30;45.70;;;18.76;38.28;97290.41;5081410;28;20516;-41
2023/06/13 05:15:13;;;;;;;4.75;3.30;;;17.30;45.70;;;18.78;38.34;97296.41;5082970;28;20048;-42
2023/06/13 05:17:41;;;;;;;5.70;3.65;;;17.40;45.60;;;18.83;38.31;97302.81;5084225;28;20040;-43
2023/06/13 05:20:11;;;;;;;4.70;3.60;;;17.40;46.00;;;18.85;38.34;97303.41;5083659;28;20518;-45
2023/06/13 05:22:41;;;;;;;4.10;3.63;;;17.50;45.60;;;18.88;38.33;97302.97;5081387;28;20052;-44
2023/06/13 05:25:09;;;;;;;5.53;3.47;;;17.50;45.60;;;18.91;38.34;97290.91;5081732;28;20133;-44
2023/06/13 05:27:37;;;;;;;7.93;3.85;;;17.50;45.70;;;18.93;38.47;97291.50;5084047;28;20032;-43
2023/06/13 05:30:09;;;;;;;6.43;4.47;;;17.60;45.50;;;19.00;38.18;97291.44;5084192;28;20044;-43
2023/06/13 05:32:37;;;;;;;4.22;3.15;;;17.60;45.60;;;19.07;37.91;97287.59;5021896;28;20043;-44
2023/06/13 05:35:14;;;;;;;5.32;3.08;;;17.70;45.10;;;19.13;37.49;97291.28;5080559;28;20056;-43
2023/06/13 05:37:43;;;;;;;6.07;3.33;;;17.70;44.50;;;19.11;37.42;97289.88;5049906;28;20059;-44
2023/06/13 05:40:11;;;;;;;6.68;3.80;;;17.70;44.30;;;19.15;37.40;97291.06;5083174;28;20051;-44
2023/06/13 05:42:40;;;;;;;7.20;3.25;;;17.80;44.00;;;19.19;37.36;97293.13;5080724;28;20048;-43
2023/06/13 05:45:09;;;;;;;5.90;3.63;;;17.80;43.90;;;19.18;37.25;97296.03;5081062;28;20048;-43
2023/06/13 05:47:37;;;;;;;3.90;3.40;;;17.80;43.90;;;19.19;37.24;97298.50;5061395;28;20051;-44
2023/06/13 05:50:05;;;;;;;4.10;3.25;;;17.80;43.60;;;19.23;36.98;97299.69;5080727;28;20396;-43
2023/06/13 05:52:33;;;;;;;4.28;3.33;;;17.90;43.40;;;19.26;36.83;97303.81;5068208;28;20035;-44
2023/06/13 05:55:03;;;;;;;4.63;3.55;;;17.90;43.10;;;19.34;36.96;97302.69;5081990;28;20044;-44
2023/06/13 05:57:43;;;;;;;5.90;3.97;;;18.00;43.30;;;19.42;36.83;97295.09;5067120;28;20043;-43
2023/06/13 06:00:13;;;;;;;5.35;3.67;;;18.00;43.00;;;19.47;36.35;97306.06;5083067;28;20447;-45
2023/06/13 06:02:47;;;;;;;3.90;2.97;;;18.00;42.50;;;19.45;36.19;97302.75;5080234;28;20055;-44
2023/06/13 06:05:15;;;;;;;4.72;3.10;;;18.10;42.10;;;19.50;35.98;97299.38;5080245;28;20055;-44
2023/06/13 06:07:44;;;;;;;4.22;2.50;;;18.20;41.90;;;19.54;35.92;97295.19;5083325;28;20040;-45
2023/06/13 06:10:12;;;;;;;7.28;2.88;;;18.20;41.50;;;19.60;35.22;97285.31;5083010;28;20047;-44
2023/06/13 06:12:41;;;;;;;4.05;3.30;;;18.20;41.30;;;19.63;35.28;97287.59;5080256;28;20523;-45
2023/06/13 06:15:10;;;;;;;3.50;2.88;;;18.30;40.70;;;19.68;35.11;97290.44;5080004;28;20565;-45
2023/06/13 06:17:38;;;;;;;7.90;3.00;;;18.30;40.50;;;19.72;34.98;97285.44;5083153;28;20138;-44
2023/06/13 06:20:06;;;;;;;6.40;2.97;;;18.40;39.90;;;19.75;34.22;97280.38;5056932;28;20048;-44
2023/06/13 06:22:36;;;;;;;3.95;2.90;;;18.40;39.20;;;19.79;33.77;97283.44;5071675;28;20043;-45
2023/06/13 06:25:05;;;;;;;3.60;2.80;;;18.40;38.50;;;19.84;33.79;97281.72;5053919;28;20496;-47
2023/06/13 06:27:33;;;;;;;4.45;3.10;;;18.40;38.50;;;19.90;33.96;97277.28;5070811;28;20036;-44
2023/06/13 06:30:00;;;;;;;7.25;3.47;;;18.50;38.80;;;19.92;33.70;97277.88;5079873;28;20055;-45
2023/06/13 06:32:28;;;;;;;4.00;2.90;;;18.50;38.70;;;19.91;33.43;97281.63;5082211;28;20051;-43
2023/06/13 06:34:56;;;;;;;5.68;2.88;;;18.60;38.30;;;19.95;33.64;97280.13;5083089;28;20063;-45
2023/06/13 06:37:24;;;;;;;5.88;3.47;;;18.70;38.30;;;19.98;33.28;97284.22;5055499;28;20044;-48
2023/06/13 06:39:52;;;;;;;3.17;2.88;;;18.70;37.80;;;19.97;32.45;97286.13;5083299;28;20415;-45
2023/06/13 06:42:20;;;;;;;5.03;2.92;;;18.70;36.80;;;19.99;32.62;97288.59;5081652;28;20040;-48
2023/06/13 06:44:59;;;;;;;6.47;2.95;;;18.70;36.70;;;20.02;32.22;97288.94;5078717;28;20079;-48
2023/06/13 06:47:27;;;;;;;6.80;3.33;;;18.80;36.20;;;20.08;32.19;97289.88;5080429;28;20040;-43
2023/06/13 06:49:55;;;;;;;5.00;3.25;;;18.80;36.00;;;20.12;32.05;97285.66;5082986;28;20048;-44
2023/06/13 06:52:23;;;;;;;4.32;2.78;;;18.80;36.20;;;20.18;32.22;97292.03;5077876;28;20048;-47
2023/06/13 06:54:50;;;;;;;4.55;2.70;;;18.90;36.50;;;20.20;31.83;97289.91;5083302;28;20495;-44
2023/06/13 06:57:18;;;;;;;6.13;2.92;;;19.00;35.60;;;20.21;31.34;97299.69;5081253;28;20722;-45
2023/06/13 06:59:49;;;;;;;3.97;2.70;;;19.00;35.00;;;20.22;30.61;97304.88;5077884;28;20085;-45
2023/06/13 07:02:17;;;;;;;4.35;2.47;;;19.00;34.20;;;20.21;30.50;97297.00;5079543;28;20527;-44
2023/06/13 07:04:45;;;;;;;9.10;2.95;;;19.00;33.80;;;20.21;31.16;97297.81;5054940;28;20056;-45
2023/06/13 07:07:13;;;;;;;4.03;2.83;;;19.00;34.20;;;20.25;31.01;97296.28;5067079;28;20504;-44
2023/06/13 07:09:40;;;;;;;3.45;2.83;;;19.10;34.50;;;20.30;31.15;97286.66;5053338;28;20523;-44
2023/06/13 07:12:08;;;;;;;8.13;3.80;;;19.20;34.40;;;20.32;31.13;97288.09;5052101;28;20097;-45
2023/06/13 07:14:36;;;;;;;3.13;2.78;;;19.20;34.30;;;20.36;30.73;97285.75;5082019;28;20043;-46
2023/06/13 07:17:04;;;;;;;6.05;3.00;;;19.20;34.30;;;20.38;30.56;97286.34;5050344;28;20041;-44
2023/06/13 07:19:31;;;;;;;4.38;2.70;;;19.20;34.00;;;20.43;30.77;97283.75;5078218;28;20306;-44
2023/06/13 07:22:00;;;;;;;4.55;2.90;;;19.30;34.30;;;20.50;30.80;97289.88;5078737;28;20075;-45
2023/06/13 07:24:32;;;;;;;;;;;19.40;34.10;;;20.56;31.06;97285.41;5082362;28;20044;-46
2023/06/13 07:27:00;;;;;;;5.72;2.97;;;19.40;33.50;;;20.63;30.33;97281.56;5057521;28;19928;-45
2023/06/13 07:29:28;;;;;;;7.07;3.60;;;19.40;33.60;;;20.64;30.45;97282.38;5080876;28;20419;-46
2023/06/13 07:31:55;;;;;;;5.75;2.80;;;19.40;33.70;;;20.65;29.86;97292.16;5082291;28;20055;-45
2023/06/13 07:34:23;;;;;;;3.95;3.10;;;19.50;33.00;;;20.68;29.22;97285.44;5081293;28;20062;-45
2023/06/13 07:36:54;;;;;;;3.40;2.90;;;19.50;32.40;;;20.67;29.66;97284.63;5051987;28;20060;-45
2023/06/13 07:39:22;;;;;;;5.07;3.05;;;19.50;32.90;;;20.71;29.59;97285.00;5079968;28;20492;-46
2023/06/13 07:41:50;;;;;;;4.15;3.05;;;19.60;33.00;;;20.80;29.73;97281.69;5082571;28;20071;-45
2023/06/13 07:44:18;;;;;;;4.80;2.55;;;19.70;33.30;;;20.88;29.84;97287.78;5055609;28;20048;-47
2023/06/13 07:46:47;;;;;;;4.97;2.95;;;19.70;33.00;;;20.92;29.87;97275.44;5055025;28;20045;-45
2023/06/13 07:49:15;;;;;;;4.82;3.53;;;19.80;32.90;;;20.97;29.61;97279.06;5075318;28;20544;-45
2023/06/13 07:51:43;;;;;;;4.65;3.33;;;19.80;32.70;;;21.00;29.55;97273.19;5065483;28;20059;-46
2023/06/13 07:54:11;;;;;;;5.25;2.90;;;19.80;32.40;;;21.03;29.43;97269.19;5080801;28;20044;-46
2023/06/13 07:56:38;;;;;;;3.95;3.10;;;19.80;32.10;;;21.06;29.06;97267.91;5077089;28;20384;-46
2023/06/13 07:59:06;;;;;;;4.03;3.13;;;19.80;32.30;;;21.12;29.01;97273.19;5077658;28;20044;-45
2023/06/13 08:01:34;;;;;;;3.42;3.00;;;19.90;32.10;;;21.15;28.81;97266.47;5053050;28;20052;-44
2023/06/13 08:04:02;;;;;;;8.10;2.95;;;20.00;31.10;;;21.16;28.55;97260.81;5081443;28;20039;-45
2023/06/13 08:06:30;;;;;;;7.47;3.10;;;20.00;31.10;;;21.17;28.31;97256.22;5079644;28;20499;-47
2023/06/13 08:08:58;;;;;;;3.15;2.65;;;20.00;31.00;;;21.19;28.24;97260.34;5078859;28;20492;-46
2023/06/13 08:11:26;;;;;;;5.13;3.00;;;20.10;31.40;;;21.26;28.73;97264.81;5079735;28;20048;-46
2023/06/13 08:13:53;;;;;;;5.40;3.33;;;20.10;31.40;;;21.33;28.71;97244.66;5082308;28;20062;-45
2023/06/13 08:16:21;;;;;;;6.63;3.17;;;20.20;31.30;;;21.38;28.53;97263.72;5054675;28;20044;-47
2023/06/13 08:18:49;;;;;;;7.15;3.22;;;20.20;31.40;;;21.43;28.18;97254.88;5082170;28;20487;-45
2023/06/13 08:21:17;;;;;;;5.80;3.40;;;20.30;30.30;;;21.48;27.97;97262.31;5081917;28;20360;-45
2023/06/13 08:23:45;;;;;;;11.82;4.80;;;20.30;30.00;;;21.52;27.52;97267.00;5073727;28;20036;-45
2023/06/13 08:26:13;;;;;;;5.05;3.60;;;20.40;29.80;;;21.59;27.56;97273.09;5081800;28;20492;-48
2023/06/13 08:28:41;;;;;;;5.63;3.20;;;20.40;30.00;;;21.64;27.55;97264.25;5081004;28;20504;-47
2023/06/13 08:31:08;;;;;;;5.03;3.35;;;20.50;30.10;;;21.68;28.00;97275.44;5082015;28;20439;-46
2023/06/13 08:33:40;;;;;;;7.78;3.50;;;20.50;30.30;;;21.69;27.46;97260.81;5084949;28;20052;-45
2023/06/13 08:36:28;;;;;;;6.43;3.70;;;20.50;29.90;;;21.74;28.04;97255.50;5055550;28;20041;-48
2023/06/13 08:38:59;;;;;;;9.48;3.40;;;20.50;30.40;;;21.78;27.43;97262.88;5078933;28;20040;-46
2023/06/13 08:41:28;;;;;;;4.22;3.50;;;20.60;30.00;;;21.83;27.51;97256.78;5090450;28;20055;-48
2023/06/13 08:43:58;;;;;;;6.38;3.50;;;20.70;30.50;;;21.86;28.01;97248.13;5085595;28;20043;-45
2023/06/13 08:46:28;;;;;;;4.35;3.63;;;20.70;30.50;;;21.90;27.64;97257.41;5058732;28;20492;-47
2023/06/13 08:48:56;;;;;;;4.85;3.85;;;20.70;30.30;;;21.95;27.49;97248.56;5059249;28;20045;-48
2023/06/13 08:51:28;;;;;;;3.85;3.42;;;20.80;30.10;;;21.98;27.44;97245.34;5078356;28;20048;-45
2023/06/13 08:54:00;;;;;;;8.35;3.70;;;20.90;30.00;;;22.03;27.60;97251.69;5081902;28;20047;-47
2023/06/13 08:56:33;;;;;;;5.88;3.25;;;20.90;30.60;;;22.08;27.94;97250.97;5055623;28;20063;-45
2023/06/13 08:59:11;;;;;;;4.93;3.22;;;20.90;31.00;;;22.14;27.92;97249.16;5062345;28;20071;-46
2023/06/13 09:01:39;;;;;;;4.68;3.45;;;21.00;30.70;;;22.19;28.24;97244.63;5057615;28;20540;-44
2023/06/13 09:04:09;;;;;;;5.38;3.50;;;21.00;31.10;;;22.24;28.08;97254.78;5085168;28;20388;-47
2023/06/13 09:06:38;;;;;;;4.75;3.05;;;21.10;31.10;;;22.29;28.16;97248.63;5058282;28;20048;-46
2023/06/13 09:09:06;;;;;;;5.82;3.63;;;21.20;31.20;;;22.33;28.11;97247.91;5084780;28;20040;-45
2023/06/13 09:11:35;;;;;;;4.22;3.13;;;21.20;30.80;;;22.36;28.12;97238.44;5083432;28;20040;-48
2023/06/13 09:14:05;;;;;;;6.22;3.22;;;21.20;30.90;;;22.40;27.69;97240.41;5081567;28;20051;-50
2023/06/13 09:16:33;;;;;;;8.18;3.72;;;21.30;30.80;;;22.43;28.08;97252.69;5082239;28;20099;-47
2023/06/13 09:19:00;;;;;;;4.57;3.78;;;21.30;30.70;;;22.45;27.79;97245.13;5084782;28;20526;-45
2023/06/13 09:21:28;;;;;;;5.82;3.55;;;21.30;30.40;;;22.49;28.00;97248.13;5084237;28;20052;-45
2023/06/13 09:23:57;;;;;;;4.57;3.10;;;21.30;30.80;;;22.54;27.91;97250.94;5081473;28;20491;-47
2023/06/13 09:26:26;;;;;;;6.13;3.83;;;21.40;31.10;;;22.57;27.81;97248.53;5080006;28;20045;-49
2023/06/13 09:28:54;;;;;;;5.57;3.15;;;21.40;30.70;;;22.61;27.56;97246.16;5038727;28;20041;-44
2023/06/13 09:31:21;;;;;;;5.55;3.33;;;21.50;30.20;;;22.64;27.53;97244.84;5081303;28;20036;-46
2023/06/13 09:33:49;;;;;;;5.25;3.40;;;21.50;30.30;;;22.66;27.35;97243.50;5084643;28;20032;-47
2023/06/13 09:36:19;;;;;;;10.38;4.05;;;21.60;30.00;;;22.71;27.05;97232.75;5084712;28;20039;-47
2023/06/13 09:38:48;;;;;;;7.63;3.55;;;21.60;29.80;;;22.75;27.04;97243.91;5080882;28;20057;-46
2023/06/13 09:41:22;;;;;;;6.97;3.72;;;21.60;29.70;;;22.78;26.75;97235.28;5079931;28;20041;-45
2023/06/13 09:43:54;;;;;;;3.72;3.33;;;21.60;29.60;;;22.80;26.95;97238.56;5057094;28;20048;-46
2023/06/13 09:46:24;;;;;;;6.30;3.63;;;21.70;29.70;;;22.87;27.05;97241.09;5083810;28;20044;-46
2023/06/13 09:48:52;;;;;;;9.48;3.88;;;21.80;29.80;;;22.97;27.23;97233.94;5049340;28;20051;-47
2023/06/13 09:51:22;;;;;;;5.65;3.58;;;21.90;29.90;;;23.07;26.75;97233.28;5084388;28;20044;-45
2023/06/13 09:53:50;;;;;;;7.90;3.58;;;22.00;29.70;;;23.17;26.60;97236.13;5051531;28;20055;-45
2023/06/13 09:56:17;;;;;;;5.25;3.53;;;22.10;29.30;;;23.26;26.48;97239.19;5071228;28;20041;-46
2023/06/13 09:58:47;;;;;;;4.15;3.28;;;22.20;29.20;;;23.35;26.70;97236.88;5071960;28;20492;-48
2023/06/13 10:01:15;;;;;;;6.07;3.47;;;22.30;29.30;;;23.43;26.29;97239.13;5072189;28;20045;-45
2023/06/13 10:03:45;;;;;;;6.10;3.42;;;22.30;29.10;;;23.50;26.42;97233.53;5071880;28;20048;-45
2023/06/13 10:06:13;;;;;;;5.05;3.35;;;22.40;29.00;;;23.59;25.77;97221.94;5071683;28;20045;-45
2023/06/13 10:08:40;;;;;;;9.18;3.90;;;22.60;28.70;;;23.64;25.57;97215.75;5071985;28;20041;-45
2023/06/13 10:11:13;;;;;;;6.28;3.70;;;22.60;28.30;;;23.73;25.67;97219.66;5054293;28;20056;-45
2023/06/13 10:13:53;;;;;;;4.30;3.30;;;22.70;28.30;;;23.80;25.61;97210.50;5054120;28;20051;-45
2023/06/13 10:16:24;;;;;;;3.67;3.28;;;22.80;28.00;;;23.85;25.45;97208.66;5071758;28;20040;-45
2023/06/13 10:18:55;;;;;;;7.18;3.60;;;22.80;28.30;;;23.89;25.45;97201.63;5054036;28;20057;-45
2023/06/13 10:21:23;;;;;;;4.60;3.20;;;22.80;28.30;;;23.96;25.80;97204.09;5080262;28;20056;-45
2023/06/13 10:23:52;;;;;;;5.45;3.90;;;22.90;28.70;;;24.05;26.06;97207.19;5055860;28;20052;-43
2023/06/13 10:26:33;;;;;;;3.88;3.47;;;23.00;29.00;;;24.14;25.71;97203.75;5083087;28;20051;-42
2023/06/13 10:29:33;;;;;;;5.68;3.65;;;23.10;28.10;;;24.25;25.56;97207.34;5063897;28;20041;-43
2023/06/13 10:32:46;;;;;;;5.80;3.78;;;23.20;27.70;;;24.35;25.25;97212.06;5061400;28;20431;-44